Terminal Aerodrome Forecast
Issued by NWS Central Illinois

Current Version | Previous Version | Text Only | Print | Product List | Glossary On
Versions: 1 2 3 4 5 6 7 8 9 10 11 12 13 14 15 16 17 18 19 20 21 22 23 24 25
561
FTUS43 KILX 300829 AAC
TAFPIA
TAF AMD
KPIA 300829Z 3008/3106 09014G24KT P6SM VCTS OVC025CB
      TEMPO 3009/3011 3SM -TSRA BR OVC015CB
     FM301100 09012KT P6SM VCSH OVC010
     FM301800 VRB06KT P6SM VCTS OVC015CB
     FM310000 36006KT 3SM BR VCSH OVC008=

USA.gov is the U.S. government's official web portal to all federal, state and local government web resources and services.